Time;durP1;ratioP1;P1;durP2;ratioP2;P2;SDS_P1;SDS_P2;PMS_P1;PMS_P2;Temp;Humidity;BMP_temperature;BMP_pressure;BME280_temperature;BME280_humidity;BME280_pressure;Samples;Min_cycle;Max_cycle;Signal;HPM_P1;HPM_P2
2022/06/30 00:02:18;;;;;;;;;0.00;0.00;;;;;;;;5098188;27;45439;-49
2022/06/30 00:04:45;;;;;;;;;0.00;0.00;;;;;;;;5098515;27;45510;-45
2022/06/30 00:07:10;;;;;;;;;0.00;0.00;;;;;;;;5098477;27;45381;-48
2022/06/30 00:09:35;;;;;;;;;1.50;0.50;;;;;;;;5097723;27;47180;-44
2022/06/30 00:12:01;;;;;;;;;0.25;0.25;;;;;;;;5098058;27;45411;-48
2022/06/30 00:14:29;;;;;;;;;0.00;0.00;;;;;;;;5097881;27;45347;-46
2022/06/30 00:16:54;;;;;;;;;0.00;0.00;;;;;;;;5098014;27;45406;-46
2022/06/30 00:19:19;;;;;;;;;0.00;0.00;;;;;;;;5097167;27;45454;-46
2022/06/30 00:21:44;;;;;;;;;0.50;0.50;;;;;;;;5097684;27;45359;-50
2022/06/30 00:24:10;;;;;;;;;0.00;0.00;;;;;;;;5097371;27;45563;-45
2022/06/30 00:26:35;;;;;;;;;0.00;0.00;;;;;;;;5097819;27;45405;-44
2022/06/30 00:29:00;;;;;;;;;1.00;1.00;;;;;;;;5096272;27;48233;-49
2022/06/30 00:31:25;;;;;;;;;0.00;0.00;;;;;;;;5097549;27;45452;-51
2022/06/30 00:33:51;;;;;;;;;0.50;0.50;;;;;;;;5097907;27;45375;-46
2022/06/30 00:36:16;;;;;;;;;0.00;0.00;;;;;;;;5096468;27;45562;-43
2022/06/30 00:38:41;;;;;;;;;0.00;0.00;;;;;;;;5097358;27;46084;-45
2022/06/30 00:41:07;;;;;;;;;0.00;0.00;;;;;;;;5097418;27;45538;-45
2022/06/30 00:43:40;;;;;;;;;0.00;0.00;;;;;;;;5097505;27;45383;-48
2022/06/30 00:46:06;;;;;;;;;0.75;0.00;;;;;;;;5097635;27;45409;-46
2022/06/30 00:48:31;;;;;;;;;0.00;0.00;;;;;;;;5097246;27;46233;-49
2022/06/30 00:50:56;;;;;;;;;0.00;0.00;;;;;;;;5097349;27;45427;-46
2022/06/30 00:53:22;;;;;;;;;0.00;0.00;;;;;;;;5097660;27;45327;-43
2022/06/30 00:55:48;;;;;;;;;1.00;1.00;;;;;;;;5097569;27;45415;-44
2022/06/30 00:58:15;;;;;;;;;0.00;0.00;;;;;;;;5097322;27;45373;-44
2022/06/30 01:00:41;;;;;;;;;0.00;0.00;;;;;;;;5097651;27;45428;-45
2022/06/30 01:03:07;;;;;;;;;0.25;0.25;;;;;;;;5097337;27;45392;-49
2022/06/30 01:05:32;;;;;;;;;1.00;1.00;;;;;;;;5097681;27;45449;-49
2022/06/30 01:07:58;;;;;;;;;1.00;1.00;;;;;;;;5097131;27;47094;-44
2022/06/30 01:13:08;;;;;;;;;1.00;0.75;;;;;;;;5100754;27;45559;-51
2022/06/30 01:15:33;;;;;;;;;1.50;1.00;;;;;;;;5101222;27;45432;-43
2022/06/30 01:17:58;;;;;;;;;0.75;0.75;;;;;;;;5101346;27;46019;-47
2022/06/30 01:20:25;;;;;;;;;1.00;1.00;;;;;;;;5101603;27;45227;-45
2022/06/30 01:22:50;;;;;;;;;2.50;1.00;;;;;;;;5101729;27;45331;-47
2022/06/30 01:25:15;;;;;;;;;1.00;1.00;;;;;;;;5104376;27;45460;-51
2022/06/30 01:27:40;;;;;;;;;1.00;1.00;;;;;;;;5102146;27;45342;-46
2022/06/30 01:30:06;;;;;;;;;0.25;0.25;;;;;;;;5100758;27;45593;-42
2022/06/30 01:32:31;;;;;;;;;1.00;1.00;;;;;;;;5100788;27;45440;-45
2022/06/30 01:34:57;;;;;;;;;2.25;0.00;;;;;;;;5101122;27;45356;-52
2022/06/30 01:37:22;;;;;;;;;3.00;1.00;;;;;;;;5100983;27;46327;-45
2022/06/30 01:39:47;;;;;;;;;1.75;1.00;;;;;;;;5100453;27;45470;-46
2022/06/30 01:42:13;;;;;;;;;2.00;2.00;;;;;;;;5100631;27;45282;-48
2022/06/30 01:44:38;;;;;;;;;1.00;1.00;;;;;;;;5100543;27;45350;-46
2022/06/30 01:47:03;;;;;;;;;0.75;0.75;;;;;;;;5099972;27;46294;-44
2022/06/30 01:49:28;;;;;;;;;2.00;2.00;;;;;;;;5099714;27;45186;-46
2022/06/30 01:51:54;;;;;;;;;2.75;1.00;;;;;;;;5100405;27;45412;-47
2022/06/30 01:54:19;;;;;;;;;3.00;2.00;;;;;;;;5100040;27;45434;-50
2022/06/30 01:56:45;;;;;;;;;2.00;0.50;;;;;;;;5098661;27;47557;-46
2022/06/30 01:59:11;;;;;;;;;4.75;1.00;;;;;;;;5099921;27;45357;-46
2022/06/30 02:01:36;;;;;;;;;1.75;1.75;;;;;;;;5100196;27;45309;-45
2022/06/30 02:06:46;;;;;;;;;5.00;2.00;;;;;;;;5099761;27;45220;-47
2022/06/30 02:09:11;;;;;;;;;1.00;1.00;;;;;;;;5099558;27;45378;-44
2022/06/30 02:11:36;;;;;;;;;1.25;1.25;;;;;;;;5099992;27;45275;-47
2022/06/30 02:14:01;;;;;;;;;2.00;1.00;;;;;;;;5099793;27;45567;-44
2022/06/30 02:16:27;;;;;;;;;1.00;1.00;;;;;;;;5099721;27;46129;-44
2022/06/30 02:18:52;;;;;;;;;3.50;1.00;;;;;;;;5099271;27;45235;-54
2022/06/30 02:21:17;;;;;;;;;1.00;1.00;;;;;;;;5097481;27;45276;-48
2022/06/30 02:23:43;;;;;;;;;2.00;0.00;;;;;;;;5099605;27;45348;-53
2022/06/30 02:26:08;;;;;;;;;1.75;1.00;;;;;;;;5099296;27;47478;-51
2022/06/30 02:28:33;;;;;;;;;1.75;1.50;;;;;;;;5099520;27;45427;-49
2022/06/30 02:30:58;;;;;;;;;2.50;2.50;;;;;;;;5099596;27;45357;-47
2022/06/30 02:33:24;;;;;;;;;2.00;0.25;;;;;;;;5100039;27;45398;-49
2022/06/30 02:35:49;;;;;;;;;1.00;1.00;;;;;;;;5099405;27;47064;-48
2022/06/30 02:38:14;;;;;;;;;1.75;1.00;;;;;;;;5099490;27;45299;-55
2022/06/30 02:40:39;;;;;;;;;1.00;1.00;;;;;;;;5099519;27;45530;-54
2022/06/30 02:43:04;;;;;;;;;1.00;1.00;;;;;;;;5099261;27;45472;-55
2022/06/30 02:45:30;;;;;;;;;2.00;2.00;;;;;;;;5099444;27;45813;-55
2022/06/30 02:47:55;;;;;;;;;3.75;1.25;;;;;;;;5099203;27;45395;-55
2022/06/30 02:50:21;;;;;;;;;3.50;2.00;;;;;;;;5099476;27;45368;-55
2022/06/30 02:52:46;;;;;;;;;3.00;2.00;;;;;;;;5099657;27;45500;-54
2022/06/30 02:55:11;;;;;;;;;2.25;2.25;;;;;;;;5098953;27;46131;-53
2022/06/30 02:57:37;;;;;;;;;2.00;2.00;;;;;;;;5099148;27;45773;-53
2022/06/30 03:00:06;;;;;;;;;2.00;2.00;;;;;;;;5099130;27;45480;-53
2022/06/30 03:02:32;;;;;;;;;2.75;1.00;;;;;;;;5099034;27;45403;-50
2022/06/30 03:04:57;;;;;;;;;1.25;1.00;;;;;;;;5099017;27;45323;-44
2022/06/30 03:07:22;;;;;;;;;1.00;1.00;;;;;;;;5099123;27;45397;-53
2022/06/30 03:09:47;;;;;;;;;5.00;1.75;;;;;;;;5098952;27;45417;-47
2022/06/30 03:12:13;;;;;;;;;2.00;1.00;;;;;;;;5099317;27;45271;-52
2022/06/30 03:14:38;;;;;;;;;3.75;2.00;;;;;;;;5098682;27;46120;-46
2022/06/30 03:17:03;;;;;;;;;1.00;1.00;;;;;;;;5098902;27;45464;-46
2022/06/30 03:19:28;;;;;;;;;3.00;1.50;;;;;;;;5099026;27;45457;-48
2022/06/30 03:21:54;;;;;;;;;2.50;1.50;;;;;;;;5098849;27;45411;-50
2022/06/30 03:24:19;;;;;;;;;3.00;1.00;;;;;;;;5098645;27;45270;-50
2022/06/30 03:26:45;;;;;;;;;1.00;1.00;;;;;;;;5098559;27;45483;-50
2022/06/30 03:29:10;;;;;;;;;3.25;1.50;;;;;;;;5098784;27;45486;-49
2022/06/30 03:31:35;;;;;;;;;1.00;1.00;;;;;;;;5098763;27;45380;-54
2022/06/30 03:34:01;;;;;;;;;1.00;1.00;;;;;;;;5098166;27;45443;-46
2022/06/30 03:36:26;;;;;;;;;2.00;2.00;;;;;;;;5098378;27;45387;-45
2022/06/30 03:38:51;;;;;;;;;0.75;0.75;;;;;;;;5098649;27;45369;-44
2022/06/30 03:41:16;;;;;;;;;2.00;0.50;;;;;;;;5098565;27;45392;-54
2022/06/30 03:43:42;;;;;;;;;1.00;1.00;;;;;;;;5098132;27;46309;-45
2022/06/30 03:46:07;;;;;;;;;2.00;0.00;;;;;;;;5098492;27;45704;-55
2022/06/30 03:48:35;;;;;;;;;2.00;2.00;;;;;;;;5098431;27;45381;-54
2022/06/30 03:51:00;;;;;;;;;2.75;2.75;;;;;;;;5098320;27;45581;-54
2022/06/30 03:53:25;;;;;;;;;3.75;1.50;;;;;;;;5098231;27;47210;-46
2022/06/30 03:55:51;;;;;;;;;3.00;2.75;;;;;;;;5098021;27;45256;-55
2022/06/30 03:58:16;;;;;;;;;3.50;2.25;;;;;;;;5098449;27;45419;-49
2022/06/30 04:00:41;;;;;;;;;1.50;1.00;;;;;;;;5098081;27;45937;-54
2022/06/30 04:03:06;;;;;;;;;1.75;1.75;;;;;;;;5097860;27;45311;-55
2022/06/30 04:05:31;;;;;;;;;1.00;1.00;;;;;;;;5098017;27;45385;-55
2022/06/30 04:07:57;;;;;;;;;2.00;1.00;;;;;;;;5098029;27;45199;-48
2022/06/30 04:10:22;;;;;;;;;2.25;1.00;;;;;;;;5098454;27;45460;-52
2022/06/30 04:12:48;;;;;;;;;4.00;1.00;;;;;;;;5097626;27;47007;-55
2022/06/30 04:15:13;;;;;;;;;3.50;1.75;;;;;;;;5097860;27;45416;-56
2022/06/30 04:17:38;;;;;;;;;4.00;1.00;;;;;;;;5096748;27;45474;-55
2022/06/30 04:20:05;;;;;;;;;2.50;1.00;;;;;;;;5097724;27;45438;-53
2022/06/30 04:22:30;;;;;;;;;2.00;1.50;;;;;;;;5097543;27;47704;-46
2022/06/30 04:24:55;;;;;;;;;1.00;1.00;;;;;;;;5097703;27;45408;-55
2022/06/30 04:27:21;;;;;;;;;3.25;2.25;;;;;;;;5097856;27;45447;-56
2022/06/30 04:29:46;;;;;;;;;4.25;2.75;;;;;;;;5098087;27;45354;-49
2022/06/30 04:34:55;;;;;;;;;1.75;1.75;;;;;;;;5097654;27;45231;-49
2022/06/30 04:37:20;;;;;;;;;2.00;2.00;;;;;;;;5097722;27;45374;-54
2022/06/30 04:39:45;;;;;;;;;2.50;2.50;;;;;;;;5097933;27;45382;-52
2022/06/30 04:42:10;;;;;;;;;2.50;1.00;;;;;;;;5097595;27;45424;-54
2022/06/30 04:44:36;;;;;;;;;2.00;2.00;;;;;;;;5096496;27;45450;-53
2022/06/30 04:47:01;;;;;;;;;3.50;1.00;;;;;;;;5097490;27;45509;-57
2022/06/30 04:49:26;;;;;;;;;2.50;2.25;;;;;;;;5097860;27;45411;-48
2022/06/30 04:51:51;;;;;;;;;2.00;2.00;;;;;;;;5097473;27;45520;-44
2022/06/30 04:54:17;;;;;;;;;3.00;2.75;;;;;;;;5097621;27;45430;-55
2022/06/30 04:56:42;;;;;;;;;2.50;1.00;;;;;;;;5097345;27;45514;-44
2022/06/30 04:59:07;;;;;;;;;4.67;2.00;;;;;;;;5097345;27;45292;-55
2022/06/30 05:01:32;;;;;;;;;6.00;4.00;;;;;;;;5097494;27;45408;-55
2022/06/30 05:03:57;;;;;;;;;2.33;2.33;;;;;;;;5097154;27;45350;-53
2022/06/30 05:06:23;;;;;;;;;4.75;2.00;;;;;;;;5097534;27;45289;-56
2022/06/30 05:08:48;;;;;;;;;1.00;0.75;;;;;;;;5097500;27;45433;-55
2022/06/30 05:11:13;;;;;;;;;6.25;3.25;;;;;;;;5096924;27;46208;-54
2022/06/30 05:13:40;;;;;;;;;4.00;3.00;;;;;;;;5097367;27;45207;-55
2022/06/30 05:16:05;;;;;;;;;5.00;3.67;;;;;;;;5097368;27;45663;-52
2022/06/30 05:18:31;;;;;;;;;3.67;3.67;;;;;;;;5097543;27;45299;-56
2022/06/30 05:20:56;;;;;;;;;3.00;3.00;;;;;;;;5096779;27;45310;-56
2022/06/30 05:23:21;;;;;;;;;2.75;2.75;;;;;;;;5096982;27;45400;-50
2022/06/30 05:28:30;;;;;;;;;4.33;4.33;;;;;;;;5097314;27;45244;-56
2022/06/30 05:30:56;;;;;;;;;4.33;3.00;;;;;;;;5096534;27;46235;-54
2022/06/30 05:33:21;;;;;;;;;6.00;3.00;;;;;;;;5097022;27;45203;-56
2022/06/30 05:35:47;;;;;;;;;4.67;3.00;;;;;;;;5097185;27;45229;-57
2022/06/30 05:38:13;;;;;;;;;3.67;2.67;;;;;;;;5097129;27;45481;-54
2022/06/30 05:40:38;;;;;;;;;2.33;2.33;;;;;;;;5096815;27;46192;-56
2022/06/30 05:43:03;;;;;;;;;4.00;2.00;;;;;;;;5096396;27;45302;-54
2022/06/30 05:45:28;;;;;;;;;4.00;4.00;;;;;;;;5096811;27;45261;-56
2022/06/30 05:47:53;;;;;;;;;4.67;3.00;;;;;;;;5097089;27;45608;-55
2022/06/30 05:50:19;;;;;;;;;4.00;2.33;;;;;;;;5096563;27;45405;-55
2022/06/30 05:52:45;;;;;;;;;5.00;3.33;;;;;;;;5096440;27;45576;-53
2022/06/30 05:55:10;;;;;;;;;5.00;3.33;;;;;;;;5096712;27;45467;-54
2022/06/30 05:57:52;;;;;;;;;2.33;2.33;;;;;;;;5098497;27;45313;-56
2022/06/30 06:00:18;;;;;;;;;6.00;4.67;;;;;;;;5100152;27;46481;-59
2022/06/30 06:02:43;;;;;;;;;5.00;3.00;;;;;;;;5099685;27;45435;-44
2022/06/30 06:05:08;;;;;;;;;2.00;2.00;;;;;;;;5100040;27;45479;-49
2022/06/30 06:07:34;;;;;;;;;5.33;5.00;;;;;;;;5098683;27;45421;-59
2022/06/30 06:09:59;;;;;;;;;3.67;3.67;;;;;;;;5099780;27;46294;-55
2022/06/30 06:12:24;;;;;;;;;3.33;3.33;;;;;;;;5099847;27;45459;-54
2022/06/30 06:14:49;;;;;;;;;5.00;3.33;;;;;;;;5099720;27;45442;-56
2022/06/30 06:17:15;;;;;;;;;4.00;3.33;;;;;;;;5100280;27;45314;-58
2022/06/30 06:19:41;;;;;;;;;3.00;3.00;;;;;;;;5098147;27;45416;-58
2022/06/30 06:22:06;;;;;;;;;6.33;5.00;;;;;;;;5099724;27;45460;-60
2022/06/30 06:24:32;;;;;;;;;5.00;5.00;;;;;;;;5099592;27;45355;-58
2022/06/30 06:26:57;;;;;;;;;5.67;4.00;;;;;;;;5099582;27;45424;-54
2022/06/30 06:29:22;;;;;;;;;3.00;3.00;;;;;;;;5099615;27;46174;-51
2022/06/30 06:31:48;;;;;;;;;8.33;6.67;;;;;;;;5099464;27;45557;-51
2022/06/30 06:34:13;;;;;;;;;4.00;4.00;;;;;;;;5099760;27;45333;-45
2022/06/30 06:36:38;;;;;;;;;7.33;6.00;;;;;;;;5098359;27;45398;-55
2022/06/30 06:39:04;;;;;;;;;6.00;5.00;;;;;;;;5097889;27;48532;-52
2022/06/30 06:41:30;;;;;;;;;5.33;3.67;;;;;;;;5099488;27;45223;-54
2022/06/30 06:43:55;;;;;;;;;8.00;5.00;;;;;;;;5099310;27;45355;-51
2022/06/30 06:46:26;;;;;;;;;5.67;5.67;;;;;;;;5096715;27;45486;-52
2022/06/30 06:48:51;;;;;;;;;7.67;5.00;;;;;;;;5097350;27;45434;-49
2022/06/30 06:51:17;;;;;;;;;6.00;3.67;;;;;;;;5097081;27;45544;-55
2022/06/30 06:53:42;;;;;;;;;5.00;5.00;;;;;;;;5095819;27;45408;-56
2022/06/30 06:56:07;;;;;;;;;5.00;3.33;;;;;;;;5097041;27;45434;-56
2022/06/30 06:58:32;;;;;;;;;3.67;3.67;;;;;;;;5098052;27;45921;-52
2022/06/30 07:00:58;;;;;;;;;5.67;3.67;;;;;;;;5098455;27;45361;-51
2022/06/30 07:03:24;;;;;;;;;3.67;3.00;;;;;;;;5098452;27;45283;-56
2022/06/30 07:05:49;;;;;;;;;6.67;6.00;;;;;;;;5098581;27;45589;-45
2022/06/30 07:08:15;;;;;;;;;4.00;3.00;;;;;;;;5097420;27;45464;-50
2022/06/30 07:10:40;;;;;;;;;5.00;3.00;;;;;;;;5098156;27;45447;-46
2022/06/30 07:13:05;;;;;;;;;5.00;5.00;;;;;;;;5098333;27;45367;-45
2022/06/30 07:15:30;;;;;;;;;4.33;4.33;;;;;;;;5098396;27;45477;-48
2022/06/30 07:17:56;;;;;;;;;5.00;5.00;;;;;;;;5098004;27;46059;-46
2022/06/30 07:20:21;;;;;;;;;4.67;3.67;;;;;;;;5098247;27;45494;-53
2022/06/30 07:22:46;;;;;;;;;5.00;5.00;;;;;;;;5098017;27;45510;-49
2022/06/30 07:25:11;;;;;;;;;3.00;3.00;;;;;;;;5098489;27;45492;-46
2022/06/30 07:27:37;;;;;;;;;5.00;3.33;;;;;;;;5097385;27;46180;-47
2022/06/30 07:30:03;;;;;;;;;6.00;4.00;;;;;;;;5098181;27;45351;-52
2022/06/30 07:32:28;;;;;;;;;5.67;4.00;;;;;;;;5098127;27;45368;-54
2022/06/30 07:34:53;;;;;;;;;4.67;4.00;;;;;;;;5098107;27;45303;-47
2022/06/30 07:37:18;;;;;;;;;4.67;2.67;;;;;;;;5097768;27;45326;-45
2022/06/30 07:39:43;;;;;;;;;3.33;2.00;;;;;;;;5097673;27;45419;-49
2022/06/30 07:42:09;;;;;;;;;2.00;2.00;;;;;;;;5097834;27;45590;-42
2022/06/30 07:44:34;;;;;;;;;5.33;4.00;;;;;;;;5096831;27;45682;-51
2022/06/30 07:46:59;;;;;;;;;6.00;6.00;;;;;;;;5097468;27;46267;-52
2022/06/30 07:49:24;;;;;;;;;4.67;4.33;;;;;;;;5097364;27;45425;-46
2022/06/30 07:51:50;;;;;;;;;4.67;4.00;;;;;;;;5097819;27;45380;-48
2022/06/30 07:54:15;;;;;;;;;7.75;3.50;;;;;;;;5097962;27;45499;-48
2022/06/30 07:56:40;;;;;;;;;4.33;3.00;;;;;;;;5097397;27;47075;-48
2022/06/30 07:59:06;;;;;;;;;5.33;3.00;;;;;;;;5097255;27;45546;-48
2022/06/30 08:01:31;;;;;;;;;4.67;3.33;;;;;;;;5097455;27;45466;-59
2022/06/30 08:03:57;;;;;;;;;3.00;3.00;;;;;;;;5097516;27;46148;-58
2022/06/30 08:06:23;;;;;;;;;4.00;4.00;;;;;;;;5097396;27;45325;-56
2022/06/30 08:08:48;;;;;;;;;6.33;4.00;;;;;;;;5096898;27;45394;-47
2022/06/30 08:11:14;;;;;;;;;5.33;4.00;;;;;;;;5097208;27;45363;-58
2022/06/30 08:13:39;;;;;;;;;5.75;3.00;;;;;;;;5097145;27;45424;-58
2022/06/30 08:16:04;;;;;;;;;0.00;0.00;;;;;;;;5097162;27;46033;-57
2022/06/30 08:18:29;;;;;;;;;5.00;3.00;;;;;;;;5097138;27;45428;-57
2022/06/30 08:20:55;;;;;;;;;3.25;2.50;;;;;;;;5095914;27;45371;-58
2022/06/30 08:23:20;;;;;;;;;3.25;2.00;;;;;;;;5097515;27;45296;-56
2022/06/30 08:25:45;;;;;;;;;5.25;4.00;;;;;;;;5096768;27;47092;-51
2022/06/30 08:28:11;;;;;;;;;4.00;2.00;;;;;;;;5097244;27;45478;-47
2022/06/30 08:30:36;;;;;;;;;3.25;2.75;;;;;;;;5097123;27;45454;-58
2022/06/30 08:33:01;;;;;;;;;4.25;4.25;;;;;;;;5097051;27;45331;-59
2022/06/30 08:35:26;;;;;;;;;5.00;3.00;;;;;;;;5096969;27;46277;-58
2022/06/30 08:37:53;;;;;;;;;4.33;3.33;;;;;;;;5096728;27;45356;-48
2022/06/30 08:43:03;;;;;;;;;4.33;4.33;;;;;;;;5096803;27;45377;-55
2022/06/30 08:45:29;;;;;;;;;2.67;2.67;;;;;;;;5096490;27;47206;-47
2022/06/30 08:47:54;;;;;;;;;7.67;4.67;;;;;;;;5096704;27;45536;-52
2022/06/30 08:50:20;;;;;;;;;4.67;3.33;;;;;;;;5096895;27;45441;-49
2022/06/30 08:52:51;;;;;;;;;3.75;2.75;;;;;;;;5096837;27;45429;-45
2022/06/30 08:55:16;;;;;;;;;4.50;3.75;;;;;;;;5096644;27;47217;-45
2022/06/30 08:57:43;;;;;;;;;2.25;2.00;;;;;;;;5096516;27;45326;-57
2022/06/30 09:00:09;;;;;;;;;2.00;2.00;;;;;;;;5096841;27;45274;-57
2022/06/30 09:02:34;;;;;;;;;2.50;2.50;;;;;;;;5097164;27;45684;-58
2022/06/30 09:05:00;;;;;;;;;6.00;2.00;;;;;;;;5096086;27;46295;-45
2022/06/30 09:07:25;;;;;;;;;3.25;3.25;;;;;;;;5096293;27;45547;-55
2022/06/30 09:09:50;;;;;;;;;2.75;2.75;;;;;;;;5096635;27;45534;-55
2022/06/30 09:12:16;;;;;;;;;4.00;2.75;;;;;;;;5096789;27;45473;-48
2022/06/30 09:14:42;;;;;;;;;3.00;3.00;;;;;;;;5096417;27;45967;-56
2022/06/30 09:17:09;;;;;;;;;2.50;2.00;;;;;;;;5096023;27;45468;-52
2022/06/30 09:19:40;;;;;;;;;3.67;3.67;;;;;;;;5095991;27;45347;-49
2022/06/30 09:22:07;;;;;;;;;1.25;1.25;;;;;;;;5096615;27;45490;-54
2022/06/30 09:24:33;;;;;;;;;3.00;2.00;;;;;;;;5096017;27;46081;-46
2022/06/30 09:27:11;;;;;;;;;29.00;25.67;;;;;;;;5095865;27;45395;-54
2022/06/30 09:29:49;;;;;;;;;14.33;9.00;;;;;;;;5096220;27;45338;-44
2022/06/30 09:32:14;;;;;;;;;5.33;4.00;;;;;;;;5099126;27;45595;-55
2022/06/30 09:34:41;;;;;;;;;5.00;3.00;;;;;;;;5099338;27;46160;-45
2022/06/30 09:37:17;;;;;;;;;5.00;3.00;;;;;;;;5099973;27;45563;-49
2022/06/30 09:39:43;;;;;;;;;5.67;2.00;;;;;;;;5099731;27;45441;-56
2022/06/30 09:42:09;;;;;;;;;5.00;4.00;;;;;;;;5099646;27;45455;-48
2022/06/30 09:44:35;;;;;;;;;6.00;3.00;;;;;;;;5099440;27;46228;-54
2022/06/30 09:47:01;;;;;;;;;3.67;2.33;;;;;;;;5099317;27;45287;-55
2022/06/30 09:49:29;;;;;;;;;2.33;1.00;;;;;;;;5099362;27;45379;-57
2022/06/30 09:51:54;;;;;;;;;5.00;3.00;;;;;;;;5099951;27;45433;-55
2022/06/30 09:54:20;;;;;;;;;0.00;0.00;;;;;;;;5097933;27;45510;-52
2022/06/30 09:56:59;;;;;;;;;4.00;3.00;;;;;;;;5099666;27;45367;-57
2022/06/30 09:59:24;;;;;;;;;5.00;3.67;;;;;;;;5099586;27;45360;-44
2022/06/30 10:01:53;;;;;;;;;2.00;2.00;;;;;;;;5099484;27;45508;-50
2022/06/30 10:04:18;;;;;;;;;3.50;3.00;;;;;;;;5099230;27;46379;-57
2022/06/30 10:06:44;;;;;;;;;3.00;3.00;;;;;;;;5099066;27;45345;-46
2022/06/30 10:09:12;;;;;;;;;2.25;2.25;;;;;;;;5099319;27;45347;-56
2022/06/30 10:11:37;;;;;;;;;3.00;3.00;;;;;;;;5099430;27;45569;-59
2022/06/30 10:14:03;;;;;;;;;5.75;3.75;;;;;;;;5098748;27;45992;-55
2022/06/30 10:16:29;;;;;;;;;5.75;3.00;;;;;;;;5098938;27;45458;-58
2022/06/30 10:18:54;;;;;;;;;3.00;3.00;;;;;;;;5099342;27;45819;-56
2022/06/30 10:21:23;;;;;;;;;4.50;1.50;;;;;;;;5099002;27;45305;-44
2022/06/30 10:23:51;;;;;;;;;3.00;3.00;;;;;;;;5098981;27;46433;-46
2022/06/30 10:29:01;;;;;;;;;3.50;3.25;;;;;;;;5098849;27;45340;-58
2022/06/30 10:31:32;;;;;;;;;3.00;3.00;;;;;;;;5099057;27;45386;-44
2022/06/30 10:34:09;;;;;;;;;3.00;2.00;;;;;;;;5098926;27;47517;-58
2022/06/30 10:36:42;;;;;;;;;3.00;3.00;;;;;;;;5098659;27;45756;-58
2022/06/30 10:39:19;;;;;;;;;3.33;2.67;;;;;;;;5098738;27;45386;-44
2022/06/30 10:41:45;;;;;;;;;3.00;2.00;;;;;;;;5099138;27;45282;-58
2022/06/30 10:44:12;;;;;;;;;2.00;2.00;;;;;;;;5097366;27;46107;-42
2022/06/30 10:46:44;;;;;;;;;3.67;3.00;;;;;;;;5098576;27;45362;-52
2022/06/30 10:49:10;;;;;;;;;5.67;5.33;;;;;;;;5098964;27;45662;-50
2022/06/30 10:51:36;;;;;;;;;3.67;3.00;;;;;;;;5098916;27;45415;-54
2022/06/30 10:54:01;;;;;;;;;4.67;3.33;;;;;;;;5098428;27;46020;-43
2022/06/30 10:56:54;;;;;;;;;4.00;4.00;;;;;;;;5098680;27;45451;-48
2022/06/30 10:59:26;;;;;;;;;4.33;3.67;;;;;;;;5098686;27;45432;-56
2022/06/30 11:02:07;;;;;;;;;5.00;2.00;;;;;;;;5098914;27;45431;-55
2022/06/30 11:04:32;;;;;;;;;3.33;3.00;;;;;;;;5098143;27;46063;-57
2022/06/30 11:07:01;;;;;;;;;6.00;3.00;;;;;;;;5096821;27;45400;-56
2022/06/30 11:09:47;;;;;;;;;8.67;7.00;;;;;;;;5098447;27;45424;-49
2022/06/30 11:12:14;;;;;;;;;7.00;5.33;;;;;;;;5098684;27;45447;-54
2022/06/30 11:14:52;;;;;;;;;4.00;4.00;;;;;;;;5098008;27;45352;-53
2022/06/30 11:17:21;;;;;;;;;7.33;7.33;;;;;;;;5097831;27;45327;-55
2022/06/30 11:19:47;;;;;;;;;4.33;4.33;;;;;;;;5097989;27;45288;-54
2022/06/30 11:22:16;;;;;;;;;6.00;6.00;;;;;;;;5098347;27;45335;-53
2022/06/30 11:24:42;;;;;;;;;9.00;7.00;;;;;;;;5097657;27;48485;-55
2022/06/30 11:27:24;;;;;;;;;7.00;7.00;;;;;;;;5098112;27;45343;-56
2022/06/30 11:29:56;;;;;;;;;9.00;6.00;;;;;;;;5097946;27;45508;-52
2022/06/30 11:32:22;;;;;;;;;16.00;9.00;;;;;;;;5098117;27;45423;-56
2022/06/30 11:34:47;;;;;;;;;6.67;4.33;;;;;;;;5097542;27;47253;-56
2022/06/30 11:37:19;;;;;;;;;6.00;5.00;;;;;;;;5097847;27;45276;-56
2022/06/30 11:39:44;;;;;;;;;3.67;3.00;;;;;;;;5097572;27;45327;-51
2022/06/30 11:42:11;;;;;;;;;16.33;11.00;;;;;;;;5098045;27;45405;-44
2022/06/30 11:44:38;;;;;;;;;8.67;7.33;;;;;;;;5097371;27;47203;-54
2022/06/30 11:47:06;;;;;;;;;9.00;7.67;;;;;;;;5097443;27;45805;-54
2022/06/30 11:49:47;;;;;;;;;10.67;9.00;;;;;;;;5097845;27;45479;-51
2022/06/30 11:52:15;;;;;;;;;7.67;5.00;;;;;;;;5098066;27;45491;-57
2022/06/30 11:55:00;;;;;;;;;5.67;5.67;;;;;;;;5097096;27;45460;-43
2022/06/30 11:57:30;;;;;;;;;4.67;4.00;;;;;;;;5096735;27;45349;-56
2022/06/30 11:59:57;;;;;;;;;3.67;3.00;;;;;;;;5097341;27;45319;-50
2022/06/30 12:02:22;;;;;;;;;7.00;4.00;;;;;;;;5097736;27;45401;-55
2022/06/30 12:04:52;;;;;;;;;5.67;4.00;;;;;;;;5097114;27;45499;-57
2022/06/30 12:07:18;;;;;;;;;5.25;3.00;;;;;;;;5097534;27;45378;-52
2022/06/30 12:09:44;;;;;;;;;4.67;3.00;;;;;;;;5097159;27;45542;-57
2022/06/30 12:12:10;;;;;;;;;4.00;2.00;;;;;;;;5097654;27;45466;-42
2022/06/30 12:14:39;;;;;;;;;9.00;4.67;;;;;;;;5097035;27;45337;-55
2022/06/30 12:17:09;;;;;;;;;9.33;6.67;;;;;;;;5096975;27;45393;-43
2022/06/30 12:19:35;;;;;;;;;5.67;5.67;;;;;;;;5097220;27;45388;-55
2022/06/30 12:22:01;;;;;;;;;4.67;4.67;;;;;;;;5097162;27;45475;-55
2022/06/30 12:24:26;;;;;;;;;12.33;7.67;;;;;;;;5097204;27;45975;-46
2022/06/30 12:26:55;;;;;;;;;7.33;6.00;;;;;;;;5097194;27;45404;-51
2022/06/30 12:29:21;;;;;;;;;4.00;3.67;;;;;;;;5097203;27;45502;-44
2022/06/30 12:31:56;;;;;;;;;4.75;4.25;;;;;;;;5097248;27;45317;-45
2022/06/30 12:34:21;;;;;;;;;3.67;3.67;;;;;;;;5097776;27;45492;-44
2022/06/30 12:36:47;;;;;;;;;4.00;2.67;;;;;;;;5097595;27;45310;-47
2022/06/30 12:39:13;;;;;;;;;5.00;4.00;;;;;;;;5097751;27;45399;-47
2022/06/30 12:41:38;;;;;;;;;3.00;3.00;;;;;;;;5097630;27;45240;-56
2022/06/30 12:44:03;;;;;;;;;4.67;2.33;;;;;;;;5097511;27;45422;-45
2022/06/30 12:46:37;;;;;;;;;5.00;5.00;;;;;;;;5097448;27;45372;-51
2022/06/30 12:49:02;;;;;;;;;5.00;3.67;;;;;;;;5097477;27;45312;-45
2022/06/30 12:51:28;;;;;;;;;4.67;2.33;;;;;;;;5097597;27;45486;-47
2022/06/30 12:53:59;;;;;;;;;2.00;2.00;;;;;;;;5097221;27;46100;-43
2022/06/30 12:56:26;;;;;;;;;3.67;3.67;;;;;;;;5097215;27;45221;-46
2022/06/30 12:59:11;;;;;;;;;5.00;3.33;;;;;;;;5097377;27;45390;-53
2022/06/30 13:01:38;;;;;;;;;4.00;3.00;;;;;;;;5097451;27;45405;-54
2022/06/30 13:04:03;;;;;;;;;3.00;3.00;;;;;;;;5096976;27;45381;-47
2022/06/30 13:06:30;;;;;;;;;5.00;3.00;;;;;;;;5098682;27;45531;-46
2022/06/30 13:08:55;;;;;;;;;6.67;6.00;;;;;;;;5101162;27;45340;-54
2022/06/30 13:11:27;;;;;;;;;5.00;4.00;;;;;;;;5101113;27;45451;-44
2022/06/30 13:13:53;;;;;;;;;3.67;3.00;;;;;;;;5100339;27;46141;-44
2022/06/30 13:16:19;;;;;;;;;3.00;3.00;;;;;;;;5100569;27;45349;-50
2022/06/30 13:18:46;;;;;;;;;3.00;3.00;;;;;;;;5100717;27;45436;-45
2022/06/30 13:21:11;;;;;;;;;3.50;3.50;;;;;;;;5100724;27;45486;-44
2022/06/30 13:23:36;;;;;;;;;3.75;2.00;;;;;;;;5100583;27;46354;-45
2022/06/30 13:26:02;;;;;;;;;4.00;4.00;;;;;;;;5100323;27;45451;-49
2022/06/30 13:28:27;;;;;;;;;4.00;3.00;;;;;;;;5100728;27;45521;-45
2022/06/30 13:30:52;;;;;;;;;6.25;3.00;;;;;;;;5100582;27;45492;-44
2022/06/30 13:33:17;;;;;;;;;3.50;3.50;;;;;;;;5099218;27;46265;-43
2022/06/30 13:35:43;;;;;;;;;7.00;4.00;;;;;;;;5099104;27;45374;-52
2022/06/30 13:38:08;;;;;;;;;4.50;2.25;;;;;;;;5099215;27;45448;-54
2022/06/30 13:40:37;;;;;;;;;3.50;3.50;;;;;;;;5099360;27;45477;-52
2022/06/30 13:43:02;;;;;;;;;3.00;2.00;;;;;;;;5098774;27;46201;-50
2022/06/30 13:45:27;;;;;;;;;4.50;2.25;;;;;;;;5099150;27;45476;-50
2022/06/30 13:47:52;;;;;;;;;3.25;3.25;;;;;;;;5099555;27;45332;-53
2022/06/30 13:50:18;;;;;;;;;3.00;3.00;;;;;;;;5099568;27;45607;-45
2022/06/30 13:52:43;;;;;;;;;3.75;3.75;;;;;;;;5099616;27;46214;-57
2022/06/30 13:55:09;;;;;;;;;6.75;3.00;;;;;;;;5099095;27;45449;-48
2022/06/30 13:57:34;;;;;;;;;5.00;3.50;;;;;;;;5099551;27;45364;-54
2022/06/30 13:59:59;;;;;;;;;3.50;3.50;;;;;;;;5099625;27;45599;-56
2022/06/30 14:02:24;;;;;;;;;4.00;4.00;;;;;;;;5098799;27;47109;-48
2022/06/30 14:04:50;;;;;;;;;7.75;4.00;;;;;;;;5099300;27;45448;-56
2022/06/30 14:07:15;;;;;;;;;2.00;2.00;;;;;;;;5099413;27;45442;-57
2022/06/30 14:09:41;;;;;;;;;0.75;0.75;;;;;;;;5099551;27;45436;-53
2022/06/30 14:12:06;;;;;;;;;9.25;6.00;;;;;;;;5099085;27;45327;-46
2022/06/30 14:14:32;;;;;;;;;5.50;4.50;;;;;;;;5098885;27;45439;-53
2022/06/30 14:16:57;;;;;;;;;9.50;6.50;;;;;;;;5098645;27;45303;-53
2022/06/30 14:19:22;;;;;;;;;5.50;5.25;;;;;;;;5097099;27;45444;-44
2022/06/30 14:21:48;;;;;;;;;12.67;7.33;;;;;;;;5098840;27;45758;-48
2022/06/30 14:24:13;;;;;;;;;11.33;9.00;;;;;;;;5098963;27;45403;-52
2022/06/30 14:26:39;;;;;;;;;10.25;4.25;;;;;;;;5098694;27;45495;-48
2022/06/30 14:29:04;;;;;;;;;5.33;5.00;;;;;;;;5099195;27;45361;-57
2022/06/30 14:31:29;;;;;;;;;4.25;4.00;;;;;;;;5098703;27;45507;-50
2022/06/30 14:33:56;;;;;;;;;4.50;4.50;;;;;;;;5098496;27;45377;-54
2022/06/30 14:36:21;;;;;;;;;4.25;4.25;;;;;;;;5098670;27;45393;-51
2022/06/30 14:38:46;;;;;;;;;4.75;4.00;;;;;;;;5098945;27;45361;-47
2022/06/30 14:41:11;;;;;;;;;5.75;5.00;;;;;;;;5098835;27;46340;-49
2022/06/30 14:43:37;;;;;;;;;4.00;2.75;;;;;;;;5097389;27;45389;-45
2022/06/30 14:46:02;;;;;;;;;3.50;3.50;;;;;;;;5098603;27;45408;-54
2022/06/30 14:48:27;;;;;;;;;3.00;3.00;;;;;;;;5098914;27;45507;-44
2022/06/30 14:50:53;;;;;;;;;4.00;4.00;;;;;;;;5098603;27;46432;-46
2022/06/30 14:53:18;;;;;;;;;4.00;4.00;;;;;;;;5098562;27;45471;-51
2022/06/30 14:55:43;;;;;;;;;2.50;2.50;;;;;;;;5098838;27;45491;-53